sensor_id;sensor_type;location;lat;lon;timestamp;P1;durP1;ratioP1;P2;durP2;ratioP2
50709;SDS011;37033;49.994;21.992;2023-02-23T00:02:53;29.90;;;12.50;;
50709;SDS011;37033;49.994;21.992;2023-02-23T00:05:46;31.60;;;13.30;;
50709;SDS011;37033;49.994;21.992;2023-02-23T00:08:36;28.80;;;12.90;;
50709;SDS011;37033;49.994;21.992;2023-02-23T00:11:26;30.00;;;13.20;;
50709;SDS011;37033;49.994;21.992;2023-02-23T00:14:16;34.40;;;14.00;;
50709;SDS011;37033;49.994;21.992;2023-02-23T00:17:06;22.70;;;10.70;;
50709;SDS011;37033;49.994;21.992;2023-02-23T00:19:59;25.70;;;12.30;;
50709;SDS011;37033;49.994;21.992;2023-02-23T00:22:53;19.90;;;10.70;;
50709;SDS011;37033;49.994;21.992;2023-02-23T00:25:44;28.70;;;12.40;;
50709;SDS011;37033;49.994;21.992;2023-02-23T00:28:33;24.90;;;11.20;;
50709;SDS011;37033;49.994;21.992;2023-02-23T00:31:24;22.50;;;10.90;;
50709;SDS011;37033;49.994;21.992;2023-02-23T00:34:16;25.30;;;12.10;;
50709;SDS011;37033;49.994;21.992;2023-02-23T00:37:07;26.20;;;11.50;;
50709;SDS011;37033;49.994;21.992;2023-02-23T00:39:57;24.70;;;11.00;;
50709;SDS011;37033;49.994;21.992;2023-02-23T00:42:47;22.70;;;11.20;;
50709;SDS011;37033;49.994;21.992;2023-02-23T00:45:38;22.40;;;10.80;;
50709;SDS011;37033;49.994;21.992;2023-02-23T00:48:28;24.00;;;12.00;;
50709;SDS011;37033;49.994;21.992;2023-02-23T00:51:18;29.60;;;13.50;;
50709;SDS011;37033;49.994;21.992;2023-02-23T00:54:09;21.50;;;10.80;;
50709;SDS011;37033;49.994;21.992;2023-02-23T00:57:00;26.10;;;11.50;;
50709;SDS011;37033;49.994;21.992;2023-02-23T00:59:50;28.30;;;13.20;;
50709;SDS011;37033;49.994;21.992;2023-02-23T01:02:39;30.10;;;13.80;;
50709;SDS011;37033;49.994;21.992;2023-02-23T01:05:32;29.50;;;13.00;;
50709;SDS011;37033;49.994;21.992;2023-02-23T01:08:22;22.20;;;11.70;;
50709;SDS011;37033;49.994;21.992;2023-02-23T01:11:14;21.40;;;12.20;;
50709;SDS011;37033;49.994;21.992;2023-02-23T01:14:04;21.90;;;10.00;;
50709;SDS011;37033;49.994;21.992;2023-02-23T01:16:54;33.80;;;14.80;;
50709;SDS011;37033;49.994;21.992;2023-02-23T01:19:44;25.40;;;11.50;;
50709;SDS011;37033;49.994;21.992;2023-02-23T01:25:23;24.00;;;11.50;;
50709;SDS011;37033;49.994;21.992;2023-02-23T01:28:14;20.50;;;10.00;;
50709;SDS011;37033;49.994;21.992;2023-02-23T01:31:08;24.10;;;12.00;;
50709;SDS011;37033;49.994;21.992;2023-02-23T01:33:58;34.60;;;12.90;;
50709;SDS011;37033;49.994;21.992;2023-02-23T01:36:49;30.70;;;13.30;;
50709;SDS011;37033;49.994;21.992;2023-02-23T01:39:38;23.70;;;12.60;;
50709;SDS011;37033;49.994;21.992;2023-02-23T01:42:28;25.10;;;12.70;;
50709;SDS011;37033;49.994;21.992;2023-02-23T01:45:21;23.90;;;11.80;;
50709;SDS011;37033;49.994;21.992;2023-02-23T01:48:14;26.70;;;12.90;;
50709;SDS011;37033;49.994;21.992;2023-02-23T01:51:07;24.70;;;12.10;;
50709;SDS011;37033;49.994;21.992;2023-02-23T01:54:01;29.20;;;12.80;;
50709;SDS011;37033;49.994;21.992;2023-02-23T01:56:57;24.00;;;12.50;;
50709;SDS011;37033;49.994;21.992;2023-02-23T01:59:50;28.20;;;13.70;;
50709;SDS011;37033;49.994;21.992;2023-02-23T02:02:41;31.40;;;12.40;;
50709;SDS011;37033;49.994;21.992;2023-02-23T02:05:31;29.60;;;13.00;;
50709;SDS011;37033;49.994;21.992;2023-02-23T02:08:21;19.60;;;10.90;;
50709;SDS011;37033;49.994;21.992;2023-02-23T02:11:12;26.10;;;11.80;;
50709;SDS011;37033;49.994;21.992;2023-02-23T02:14:17;24.20;;;11.90;;
50709;SDS011;37033;49.994;21.992;2023-02-23T02:17:13;26.40;;;12.20;;
50709;SDS011;37033;49.994;21.992;2023-02-23T02:23:40;21.70;;;10.70;;
50709;SDS011;37033;49.994;21.992;2023-02-23T02:26:50;23.80;;;11.70;;
50709;SDS011;37033;49.994;21.992;2023-02-23T02:33:26;25.60;;;12.90;;
50709;SDS011;37033;49.994;21.992;2023-02-23T02:36:48;27.50;;;11.30;;
50709;SDS011;37033;49.994;21.992;2023-02-23T02:39:56;21.90;;;10.80;;
50709;SDS011;37033;49.994;21.992;2023-02-23T02:43:02;28.70;;;12.30;;
50709;SDS011;37033;49.994;21.992;2023-02-23T02:46:00;27.70;;;12.20;;
50709;SDS011;37033;49.994;21.992;2023-02-23T02:48:56;27.30;;;12.50;;
50709;SDS011;37033;49.994;21.992;2023-02-23T02:51:54;26.90;;;12.00;;
50709;SDS011;37033;49.994;21.992;2023-02-23T02:54:48;26.30;;;12.80;;
50709;SDS011;37033;49.994;21.992;2023-02-23T02:57:40;26.70;;;12.30;;
50709;SDS011;37033;49.994;21.992;2023-02-23T03:00:36;26.60;;;12.30;;
50709;SDS011;37033;49.994;21.992;2023-02-23T03:03:45;26.40;;;12.60;;
50709;SDS011;37033;49.994;21.992;2023-02-23T03:06:56;29.80;;;14.50;;
50709;SDS011;37033;49.994;21.992;2023-02-23T03:10:10;37.40;;;15.50;;
50709;SDS011;37033;49.994;21.992;2023-02-23T03:13:25;33.50;;;15.30;;
50709;SDS011;37033;49.994;21.992;2023-02-23T03:16:45;30.20;;;14.80;;
50709;SDS011;37033;49.994;21.992;2023-02-23T03:20:02;32.50;;;14.70;;
50709;SDS011;37033;49.994;21.992;2023-02-23T03:23:20;28.30;;;14.30;;
50709;SDS011;37033;49.994;21.992;2023-02-23T03:26:34;33.70;;;13.70;;
50709;SDS011;37033;49.994;21.992;2023-02-23T03:29:46;32.20;;;13.80;;
50709;SDS011;37033;49.994;21.992;2023-02-23T03:33:00;39.60;;;14.40;;
50709;SDS011;37033;49.994;21.992;2023-02-23T03:39:25;30.80;;;12.90;;
50709;SDS011;37033;49.994;21.992;2023-02-23T03:42:37;31.80;;;14.50;;
50709;SDS011;37033;49.994;21.992;2023-02-23T03:45:48;33.20;;;14.80;;
50709;SDS011;37033;49.994;21.992;2023-02-23T03:48:58;28.60;;;13.70;;
50709;SDS011;37033;49.994;21.992;2023-02-23T03:52:09;32.20;;;14.50;;
50709;SDS011;37033;49.994;21.992;2023-02-23T03:55:23;27.00;;;14.00;;
50709;SDS011;37033;49.994;21.992;2023-02-23T03:58:35;28.00;;;13.00;;
50709;SDS011;37033;49.994;21.992;2023-02-23T04:01:45;32.10;;;13.40;;
50709;SDS011;37033;49.994;21.992;2023-02-23T04:04:56;30.80;;;14.00;;
50709;SDS011;37033;49.994;21.992;2023-02-23T04:08:08;35.60;;;14.30;;
50709;SDS011;37033;49.994;21.992;2023-02-23T04:11:22;31.10;;;13.10;;
50709;SDS011;37033;49.994;21.992;2023-02-23T04:14:40;32.20;;;13.60;;
50709;SDS011;37033;49.994;21.992;2023-02-23T04:17:34;34.90;;;15.20;;
50709;SDS011;37033;49.994;21.992;2023-02-23T04:20:24;34.40;;;14.50;;
50709;SDS011;37033;49.994;21.992;2023-02-23T04:23:14;27.30;;;14.60;;
50709;SDS011;37033;49.994;21.992;2023-02-23T04:26:04;28.30;;;14.00;;
50709;SDS011;37033;49.994;21.992;2023-02-23T04:28:54;29.50;;;15.80;;
50709;SDS011;37033;49.994;21.992;2023-02-23T04:31:43;35.00;;;14.70;;
50709;SDS011;37033;49.994;21.992;2023-02-23T04:34:34;33.30;;;15.20;;
50709;SDS011;37033;49.994;21.992;2023-02-23T04:37:23;33.30;;;15.70;;
50709;SDS011;37033;49.994;21.992;2023-02-23T04:40:13;32.20;;;15.20;;
50709;SDS011;37033;49.994;21.992;2023-02-23T04:43:03;31.70;;;14.10;;
50709;SDS011;37033;49.994;21.992;2023-02-23T04:45:53;35.20;;;15.80;;
50709;SDS011;37033;49.994;21.992;2023-02-23T04:48:42;31.90;;;14.60;;
50709;SDS011;37033;49.994;21.992;2023-02-23T04:51:32;32.70;;;14.30;;
50709;SDS011;37033;49.994;21.992;2023-02-23T04:54:23;33.40;;;15.40;;
50709;SDS011;37033;49.994;21.992;2023-02-23T04:57:13;32.70;;;15.00;;
50709;SDS011;37033;49.994;21.992;2023-02-23T05:00:03;26.80;;;14.10;;
50709;SDS011;37033;49.994;21.992;2023-02-23T05:02:54;30.30;;;14.50;;
50709;SDS011;37033;49.994;21.992;2023-02-23T05:05:45;29.90;;;14.90;;
50709;SDS011;37033;49.994;21.992;2023-02-23T05:08:34;26.30;;;14.50;;
50709;SDS011;37033;49.994;21.992;2023-02-23T05:11:24;35.40;;;14.30;;
50709;SDS011;37033;49.994;21.992;2023-02-23T05:14:13;38.50;;;15.50;;
50709;SDS011;37033;49.994;21.992;2023-02-23T05:17:03;33.80;;;15.20;;
50709;SDS011;37033;49.994;21.992;2023-02-23T05:19:53;34.90;;;15.10;;
50709;SDS011;37033;49.994;21.992;2023-02-23T05:22:43;37.70;;;16.30;;
50709;SDS011;37033;49.994;21.992;2023-02-23T05:25:33;36.10;;;15.90;;
50709;SDS011;37033;49.994;21.992;2023-02-23T05:28:24;33.30;;;16.30;;
50709;SDS011;37033;49.994;21.992;2023-02-23T05:31:14;33.70;;;15.50;;
50709;SDS011;37033;49.994;21.992;2023-02-23T05:34:05;33.30;;;15.30;;
50709;SDS011;37033;49.994;21.992;2023-02-23T05:36:55;34.50;;;16.00;;
50709;SDS011;37033;49.994;21.992;2023-02-23T05:39:44;33.60;;;14.70;;
50709;SDS011;37033;49.994;21.992;2023-02-23T05:42:34;40.50;;;16.80;;
50709;SDS011;37033;49.994;21.992;2023-02-23T05:45:24;39.90;;;15.30;;
50709;SDS011;37033;49.994;21.992;2023-02-23T05:48:15;24.60;;;12.70;;
50709;SDS011;37033;49.994;21.992;2023-02-23T05:51:06;28.50;;;13.40;;
50709;SDS011;37033;49.994;21.992;2023-02-23T05:53:57;33.60;;;14.40;;
50709;SDS011;37033;49.994;21.992;2023-02-23T05:56:47;65.50;;;21.00;;
50709;SDS011;37033;49.994;21.992;2023-02-23T05:59:37;48.70;;;19.40;;
50709;SDS011;37033;49.994;21.992;2023-02-23T06:02:26;35.70;;;14.90;;
50709;SDS011;37033;49.994;21.992;2023-02-23T06:05:15;31.00;;;12.90;;
50709;SDS011;37033;49.994;21.992;2023-02-23T06:08:05;21.70;;;10.40;;
50709;SDS011;37033;49.994;21.992;2023-02-23T06:10:54;19.90;;;10.50;;
50709;SDS011;37033;49.994;21.992;2023-02-23T06:13:44;17.00;;;9.30;;
50709;SDS011;37033;49.994;21.992;2023-02-23T06:16:34;14.50;;;8.30;;
50709;SDS011;37033;49.994;21.992;2023-02-23T06:19:23;19.10;;;8.70;;
50709;SDS011;37033;49.994;21.992;2023-02-23T06:22:13;18.70;;;8.40;;
50709;SDS011;37033;49.994;21.992;2023-02-23T06:25:03;15.00;;;8.40;;
50709;SDS011;37033;49.994;21.992;2023-02-23T06:27:58;14.00;;;7.70;;
50709;SDS011;37033;49.994;21.992;2023-02-23T06:30:48;17.00;;;8.20;;
50709;SDS011;37033;49.994;21.992;2023-02-23T06:33:39;13.80;;;7.30;;
50709;SDS011;37033;49.994;21.992;2023-02-23T06:36:29;14.60;;;8.10;;
50709;SDS011;37033;49.994;21.992;2023-02-23T06:39:18;17.50;;;8.40;;
50709;SDS011;37033;49.994;21.992;2023-02-23T06:42:07;13.80;;;8.50;;
50709;SDS011;37033;49.994;21.992;2023-02-23T06:44:57;10.10;;;6.60;;
50709;SDS011;37033;49.994;21.992;2023-02-23T06:47:47;13.50;;;7.40;;
50709;SDS011;37033;49.994;21.992;2023-02-23T06:50:37;12.60;;;6.80;;
50709;SDS011;37033;49.994;21.992;2023-02-23T06:53:27;10.10;;;6.90;;
50709;SDS011;37033;49.994;21.992;2023-02-23T06:56:17;13.90;;;8.20;;
50709;SDS011;37033;49.994;21.992;2023-02-23T06:59:07;12.40;;;7.90;;
50709;SDS011;37033;49.994;21.992;2023-02-23T07:01:57;15.40;;;8.00;;
50709;SDS011;37033;49.994;21.992;2023-02-23T07:04:47;14.90;;;8.00;;
50709;SDS011;37033;49.994;21.992;2023-02-23T07:07:37;15.00;;;7.80;;
50709;SDS011;37033;49.994;21.992;2023-02-23T07:10:27;13.80;;;8.10;;
50709;SDS011;37033;49.994;21.992;2023-02-23T07:13:16;13.60;;;8.40;;
50709;SDS011;37033;49.994;21.992;2023-02-23T07:16:08;15.80;;;9.10;;
50709;SDS011;37033;49.994;21.992;2023-02-23T07:19:00;15.20;;;9.30;;
50709;SDS011;37033;49.994;21.992;2023-02-23T07:21:50;15.30;;;8.90;;
50709;SDS011;37033;49.994;21.992;2023-02-23T07:24:40;12.20;;;7.60;;
50709;SDS011;37033;49.994;21.992;2023-02-23T07:27:30;10.50;;;7.40;;
50709;SDS011;37033;49.994;21.992;2023-02-23T07:30:19;16.90;;;8.10;;
50709;SDS011;37033;49.994;21.992;2023-02-23T07:33:10;11.10;;;6.50;;
50709;SDS011;37033;49.994;21.992;2023-02-23T07:36:00;15.60;;;8.80;;
50709;SDS011;37033;49.994;21.992;2023-02-23T07:38:49;11.10;;;7.10;;
50709;SDS011;37033;49.994;21.992;2023-02-23T07:41:39;15.10;;;8.60;;
50709;SDS011;37033;49.994;21.992;2023-02-23T07:44:29;9.70;;;7.30;;
50709;SDS011;37033;49.994;21.992;2023-02-23T07:47:19;17.80;;;9.20;;
50709;SDS011;37033;49.994;21.992;2023-02-23T07:50:16;14.10;;;7.70;;
50709;SDS011;37033;49.994;21.992;2023-02-23T07:53:06;15.80;;;9.30;;
50709;SDS011;37033;49.994;21.992;2023-02-23T07:55:57;13.40;;;8.30;;
50709;SDS011;37033;49.994;21.992;2023-02-23T07:58:49;13.10;;;7.90;;
50709;SDS011;37033;49.994;21.992;2023-02-23T08:01:38;17.70;;;9.20;;
50709;SDS011;37033;49.994;21.992;2023-02-23T08:04:28;12.60;;;7.60;;
50709;SDS011;37033;49.994;21.992;2023-02-23T08:07:17;13.30;;;8.60;;
50709;SDS011;37033;49.994;21.992;2023-02-23T08:10:08;16.00;;;8.50;;
50709;SDS011;37033;49.994;21.992;2023-02-23T08:12:59;13.00;;;7.70;;
50709;SDS011;37033;49.994;21.992;2023-02-23T08:15:48;13.90;;;8.10;;
50709;SDS011;37033;49.994;21.992;2023-02-23T08:18:38;19.40;;;8.80;;
50709;SDS011;37033;49.994;21.992;2023-02-23T08:21:28;13.50;;;8.50;;
50709;SDS011;37033;49.994;21.992;2023-02-23T08:24:18;15.60;;;8.60;;
50709;SDS011;37033;49.994;21.992;2023-02-23T08:27:08;12.90;;;8.10;;
50709;SDS011;37033;49.994;21.992;2023-02-23T08:29:58;11.10;;;8.10;;
50709;SDS011;37033;49.994;21.992;2023-02-23T08:32:50;12.30;;;8.70;;
50709;SDS011;37033;49.994;21.992;2023-02-23T08:35:39;15.10;;;8.80;;
50709;SDS011;37033;49.994;21.992;2023-02-23T08:38:29;12.60;;;7.40;;
50709;SDS011;37033;49.994;21.992;2023-02-23T08:41:22;13.80;;;7.80;;
50709;SDS011;37033;49.994;21.992;2023-02-23T08:44:11;15.20;;;8.60;;
50709;SDS011;37033;49.994;21.992;2023-02-23T08:47:01;15.50;;;8.70;;
50709;SDS011;37033;49.994;21.992;2023-02-23T08:49:50;13.90;;;7.60;;
50709;SDS011;37033;49.994;21.992;2023-02-23T08:52:41;15.90;;;8.00;;
50709;SDS011;37033;49.994;21.992;2023-02-23T08:55:30;16.30;;;8.90;;
50709;SDS011;37033;49.994;21.992;2023-02-23T08:58:20;10.20;;;7.40;;
50709;SDS011;37033;49.994;21.992;2023-02-23T09:01:16;12.30;;;8.50;;
50709;SDS011;37033;49.994;21.992;2023-02-23T09:04:07;11.30;;;7.70;;
50709;SDS011;37033;49.994;21.992;2023-02-23T09:06:56;10.60;;;7.70;;
50709;SDS011;37033;49.994;21.992;2023-02-23T09:09:51;16.50;;;7.60;;
50709;SDS011;37033;49.994;21.992;2023-02-23T09:12:42;10.10;;;6.70;;
50709;SDS011;37033;49.994;21.992;2023-02-23T09:15:31;14.30;;;8.00;;
50709;SDS011;37033;49.994;21.992;2023-02-23T09:18:22;17.40;;;9.40;;
50709;SDS011;37033;49.994;21.992;2023-02-23T09:21:15;11.40;;;7.40;;
50709;SDS011;37033;49.994;21.992;2023-02-23T09:24:07;23.50;;;11.20;;
50709;SDS011;37033;49.994;21.992;2023-02-23T09:26:57;12.00;;;8.10;;
50709;SDS011;37033;49.994;21.992;2023-02-23T09:29:47;16.50;;;8.50;;
50709;SDS011;37033;49.994;21.992;2023-02-23T09:32:37;12.20;;;7.10;;
50709;SDS011;37033;49.994;21.992;2023-02-23T09:35:26;11.60;;;7.80;;
50709;SDS011;37033;49.994;21.992;2023-02-23T09:38:16;11.00;;;8.00;;
50709;SDS011;37033;49.994;21.992;2023-02-23T09:41:06;9.90;;;7.20;;
50709;SDS011;37033;49.994;21.992;2023-02-23T09:44:12;13.90;;;7.80;;
50709;SDS011;37033;49.994;21.992;2023-02-23T09:47:12;11.40;;;8.00;;
50709;SDS011;37033;49.994;21.992;2023-02-23T09:50:14;13.70;;;8.50;;
50709;SDS011;37033;49.994;21.992;2023-02-23T09:56:23;13.00;;;7.60;;
50709;SDS011;37033;49.994;21.992;2023-02-23T09:59:19;11.90;;;7.80;;
50709;SDS011;37033;49.994;21.992;2023-02-23T10:02:15;10.50;;;7.10;;
50709;SDS011;37033;49.994;21.992;2023-02-23T10:05:10;11.50;;;6.80;;
50709;SDS011;37033;49.994;21.992;2023-02-23T10:08:04;9.00;;;6.80;;
50709;SDS011;37033;49.994;21.992;2023-02-23T10:13:57;10.50;;;7.40;;
50709;SDS011;37033;49.994;21.992;2023-02-23T10:17:06;10.20;;;6.90;;
50709;SDS011;37033;49.994;21.992;2023-02-23T10:20:05;9.60;;;7.20;;
50709;SDS011;37033;49.994;21.992;2023-02-23T10:23:02;15.90;;;7.20;;
50709;SDS011;37033;49.994;21.992;2023-02-23T10:25:55;13.50;;;7.60;;
50709;SDS011;37033;49.994;21.992;2023-02-23T10:28:47;11.60;;;7.90;;
50709;SDS011;37033;49.994;21.992;2023-02-23T10:31:39;12.80;;;7.40;;
50709;SDS011;37033;49.994;21.992;2023-02-23T10:34:33;11.70;;;8.00;;
50709;SDS011;37033;49.994;21.992;2023-02-23T10:37:24;13.50;;;7.70;;
50709;SDS011;37033;49.994;21.992;2023-02-23T10:40:14;14.80;;;8.30;;
50709;SDS011;37033;49.994;21.992;2023-02-23T10:43:06;10.60;;;6.40;;
50709;SDS011;37033;49.994;21.992;2023-02-23T10:45:57;10.80;;;6.40;;
50709;SDS011;37033;49.994;21.992;2023-02-23T10:48:47;10.60;;;7.40;;
50709;SDS011;37033;49.994;21.992;2023-02-23T10:51:41;11.00;;;7.10;;
50709;SDS011;37033;49.994;21.992;2023-02-23T10:54:39;9.00;;;6.70;;
50709;SDS011;37033;49.994;21.992;2023-02-23T10:57:31;11.70;;;7.10;;
50709;SDS011;37033;49.994;21.992;2023-02-23T11:00:26;13.00;;;7.70;;
50709;SDS011;37033;49.994;21.992;2023-02-23T11:03:21;12.40;;;7.70;;
50709;SDS011;37033;49.994;21.992;2023-02-23T11:06:27;11.10;;;7.30;;
50709;SDS011;37033;49.994;21.992;2023-02-23T11:09:22;8.40;;;6.40;;
50709;SDS011;37033;49.994;21.992;2023-02-23T11:12:18;11.10;;;7.80;;
50709;SDS011;37033;49.994;21.992;2023-02-23T11:15:24;10.60;;;7.10;;
50709;SDS011;37033;49.994;21.992;2023-02-23T11:18:19;12.30;;;7.60;;
50709;SDS011;37033;49.994;21.992;2023-02-23T11:21:13;10.60;;;6.70;;
50709;SDS011;37033;49.994;21.992;2023-02-23T11:24:12;11.80;;;7.70;;
50709;SDS011;37033;49.994;21.992;2023-02-23T11:27:17;13.60;;;7.00;;
50709;SDS011;37033;49.994;21.992;2023-02-23T11:30:12;13.50;;;6.70;;
50709;SDS011;37033;49.994;21.992;2023-02-23T11:33:03;10.30;;;6.60;;
50709;SDS011;37033;49.994;21.992;2023-02-23T11:35:57;9.60;;;6.90;;
50709;SDS011;37033;49.994;21.992;2023-02-23T11:39:05;11.90;;;6.20;;
50709;SDS011;37033;49.994;21.992;2023-02-23T11:42:15;11.00;;;6.30;;
50709;SDS011;37033;49.994;21.992;2023-02-23T11:45:06;12.60;;;7.50;;
50709;SDS011;37033;49.994;21.992;2023-02-23T11:48:15;9.60;;;6.90;;
50709;SDS011;37033;49.994;21.992;2023-02-23T11:51:08;12.30;;;7.50;;
50709;SDS011;37033;49.994;21.992;2023-02-23T11:54:16;8.60;;;6.20;;
50709;SDS011;37033;49.994;21.992;2023-02-23T11:57:09;9.10;;;6.00;;
50709;SDS011;37033;49.994;21.992;2023-02-23T12:00:09;10.50;;;6.60;;
50709;SDS011;37033;49.994;21.992;2023-02-23T12:03:11;8.90;;;6.10;;
50709;SDS011;37033;49.994;21.992;2023-02-23T12:06:11;15.70;;;6.20;;
50709;SDS011;37033;49.994;21.992;2023-02-23T12:09:16;10.80;;;7.00;;
50709;SDS011;37033;49.994;21.992;2023-02-23T12:12:12;15.90;;;6.90;;
50709;SDS011;37033;49.994;21.992;2023-02-23T12:15:09;7.60;;;6.30;;
50709;SDS011;37033;49.994;21.992;2023-02-23T12:18:09;11.40;;;6.80;;
50709;SDS011;37033;49.994;21.992;2023-02-23T12:21:08;6.30;;;4.90;;
50709;SDS011;37033;49.994;21.992;2023-02-23T12:24:14;7.40;;;5.30;;
50709;SDS011;37033;49.994;21.992;2023-02-23T12:27:10;8.50;;;6.20;;
50709;SDS011;37033;49.994;21.992;2023-02-23T12:30:04;7.90;;;6.70;;
50709;SDS011;37033;49.994;21.992;2023-02-23T12:33:03;11.30;;;6.60;;
50709;SDS011;37033;49.994;21.992;2023-02-23T12:35:59;11.60;;;6.30;;
50709;SDS011;37033;49.994;21.992;2023-02-23T12:38:56;10.50;;;7.40;;
50709;SDS011;37033;49.994;21.992;2023-02-23T12:41:54;13.30;;;6.50;;
50709;SDS011;37033;49.994;21.992;2023-02-23T12:44:52;8.00;;;6.00;;
50709;SDS011;37033;49.994;21.992;2023-02-23T12:47:45;6.00;;;5.10;;
50709;SDS011;37033;49.994;21.992;2023-02-23T12:53:38;12.30;;;6.00;;
50709;SDS011;37033;49.994;21.992;2023-02-23T12:56:32;8.60;;;6.50;;
50709;SDS011;37033;49.994;21.992;2023-02-23T12:59:43;8.40;;;4.80;;
50709;SDS011;37033;49.994;21.992;2023-02-23T13:03:10;13.40;;;6.30;;
50709;SDS011;37033;49.994;21.992;2023-02-23T13:06:12;16.30;;;6.70;;
50709;SDS011;37033;49.994;21.992;2023-02-23T13:09:12;9.10;;;5.10;;
50709;SDS011;37033;49.994;21.992;2023-02-23T13:12:15;10.60;;;6.20;;
50709;SDS011;37033;49.994;21.992;2023-02-23T13:15:25;9.70;;;5.80;;
50709;SDS011;37033;49.994;21.992;2023-02-23T13:18:29;12.30;;;6.20;;
50709;SDS011;37033;49.994;21.992;2023-02-23T13:21:24;9.80;;;6.40;;
50709;SDS011;37033;49.994;21.992;2023-02-23T13:24:21;12.60;;;6.30;;
50709;SDS011;37033;49.994;21.992;2023-02-23T13:27:14;11.60;;;6.30;;
50709;SDS011;37033;49.994;21.992;2023-02-23T13:30:10;11.60;;;6.30;;
50709;SDS011;37033;49.994;21.992;2023-02-23T13:33:03;8.50;;;5.80;;
50709;SDS011;37033;49.994;21.992;2023-02-23T13:36:02;11.10;;;6.00;;
50709;SDS011;37033;49.994;21.992;2023-02-23T13:39:00;10.40;;;6.50;;
50709;SDS011;37033;49.994;21.992;2023-02-23T13:42:13;8.00;;;5.80;;
50709;SDS011;37033;49.994;21.992;2023-02-23T13:45:25;10.20;;;5.40;;
50709;SDS011;37033;49.994;21.992;2023-02-23T13:48:28;9.00;;;5.80;;
50709;SDS011;37033;49.994;21.992;2023-02-23T13:51:29;11.00;;;6.50;;
50709;SDS011;37033;49.994;21.992;2023-02-23T13:54:29;11.60;;;6.60;;
50709;SDS011;37033;49.994;21.992;2023-02-23T13:57:20;11.60;;;6.70;;
50709;SDS011;37033;49.994;21.992;2023-02-23T14:03:07;11.20;;;6.20;;
50709;SDS011;37033;49.994;21.992;2023-02-23T14:06:12;11.40;;;6.50;;
50709;SDS011;37033;49.994;21.992;2023-02-23T14:09:07;10.60;;;6.90;;
50709;SDS011;37033;49.994;21.992;2023-02-23T14:12:10;12.70;;;6.20;;
50709;SDS011;37033;49.994;21.992;2023-02-23T14:18:31;17.40;;;6.80;;
50709;SDS011;37033;49.994;21.992;2023-02-23T14:21:24;14.70;;;8.00;;
50709;SDS011;37033;49.994;21.992;2023-02-23T14:24:20;13.50;;;6.90;;
50709;SDS011;37033;49.994;21.992;2023-02-23T14:30:22;11.60;;;7.10;;
50709;SDS011;37033;49.994;21.992;2023-02-23T14:36:40;10.20;;;6.20;;
50709;SDS011;37033;49.994;21.992;2023-02-23T14:39:32;8.90;;;5.50;;
50709;SDS011;37033;49.994;21.992;2023-02-23T14:42:23;7.70;;;5.70;;
50709;SDS011;37033;49.994;21.992;2023-02-23T14:45:20;8.30;;;6.10;;
50709;SDS011;37033;49.994;21.992;2023-02-23T14:48:12;10.60;;;5.80;;
50709;SDS011;37033;49.994;21.992;2023-02-23T14:51:17;10.20;;;6.30;;
50709;SDS011;37033;49.994;21.992;2023-02-23T14:54:12;11.20;;;7.00;;
50709;SDS011;37033;49.994;21.992;2023-02-23T14:57:19;11.50;;;6.80;;
50709;SDS011;37033;49.994;21.992;2023-02-23T15:00:15;8.40;;;6.50;;
50709;SDS011;37033;49.994;21.992;2023-02-23T15:03:10;12.90;;;7.20;;
50709;SDS011;37033;49.994;21.992;2023-02-23T15:05:59;15.60;;;7.20;;
50709;SDS011;37033;49.994;21.992;2023-02-23T15:08:49;15.70;;;7.70;;
50709;SDS011;37033;49.994;21.992;2023-02-23T15:11:39;14.20;;;8.50;;
50709;SDS011;37033;49.994;21.992;2023-02-23T15:14:31;21.60;;;9.60;;
50709;SDS011;37033;49.994;21.992;2023-02-23T15:17:26;27.60;;;12.30;;
50709;SDS011;37033;49.994;21.992;2023-02-23T15:20:20;25.20;;;10.90;;
50709;SDS011;37033;49.994;21.992;2023-02-23T15:23:18;20.10;;;10.80;;
50709;SDS011;37033;49.994;21.992;2023-02-23T15:26:16;25.40;;;11.80;;
50709;SDS011;37033;49.994;21.992;2023-02-23T15:29:13;16.40;;;9.70;;
50709;SDS011;37033;49.994;21.992;2023-02-23T15:32:11;27.10;;;13.80;;
50709;SDS011;37033;49.994;21.992;2023-02-23T15:35:09;14.20;;;8.70;;
50709;SDS011;37033;49.994;21.992;2023-02-23T15:37:59;15.80;;;8.60;;
50709;SDS011;37033;49.994;21.992;2023-02-23T15:40:51;17.00;;;9.20;;
50709;SDS011;37033;49.994;21.992;2023-02-23T15:43:44;22.60;;;12.60;;
50709;SDS011;37033;49.994;21.992;2023-02-23T15:46:34;21.30;;;11.80;;
50709;SDS011;37033;49.994;21.992;2023-02-23T15:49:28;22.70;;;11.30;;
50709;SDS011;37033;49.994;21.992;2023-02-23T15:52:22;22.70;;;11.40;;
50709;SDS011;37033;49.994;21.992;2023-02-23T15:55:14;15.90;;;10.40;;
50709;SDS011;37033;49.994;21.992;2023-02-23T15:58:11;19.30;;;11.20;;
50709;SDS011;37033;49.994;21.992;2023-02-23T16:01:09;19.30;;;10.60;;
50709;SDS011;37033;49.994;21.992;2023-02-23T16:04:05;27.80;;;12.70;;
50709;SDS011;37033;49.994;21.992;2023-02-23T16:07:14;22.20;;;12.90;;
50709;SDS011;37033;49.994;21.992;2023-02-23T16:10:17;28.00;;;14.70;;
50709;SDS011;37033;49.994;21.992;2023-02-23T16:13:09;40.70;;;16.30;;
50709;SDS011;37033;49.994;21.992;2023-02-23T16:16:01;32.60;;;15.60;;
50709;SDS011;37033;49.994;21.992;2023-02-23T16:18:57;32.50;;;16.70;;
50709;SDS011;37033;49.994;21.992;2023-02-23T16:21:49;33.90;;;16.50;;
50709;SDS011;37033;49.994;21.992;2023-02-23T16:24:42;37.80;;;18.30;;
50709;SDS011;37033;49.994;21.992;2023-02-23T16:27:31;39.70;;;20.60;;
50709;SDS011;37033;49.994;21.992;2023-02-23T16:30:33;53.10;;;22.20;;
50709;SDS011;37033;49.994;21.992;2023-02-23T16:33:27;51.10;;;22.60;;
50709;SDS011;37033;49.994;21.992;2023-02-23T16:36:19;43.00;;;21.00;;
50709;SDS011;37033;49.994;21.992;2023-02-23T16:39:11;40.00;;;19.50;;
50709;SDS011;37033;49.994;21.992;2023-02-23T16:42:03;35.40;;;18.50;;
50709;SDS011;37033;49.994;21.992;2023-02-23T16:44:53;34.90;;;18.50;;
50709;SDS011;37033;49.994;21.992;2023-02-23T16:47:43;40.40;;;18.40;;
50709;SDS011;37033;49.994;21.992;2023-02-23T16:50:34;40.10;;;20.30;;
50709;SDS011;37033;49.994;21.992;2023-02-23T16:53:26;44.40;;;22.40;;
50709;SDS011;37033;49.994;21.992;2023-02-23T16:56:16;48.30;;;21.70;;
50709;SDS011;37033;49.994;21.992;2023-02-23T16:59:09;52.00;;;24.20;;
50709;SDS011;37033;49.994;21.992;2023-02-23T17:02:00;48.20;;;23.40;;
50709;SDS011;37033;49.994;21.992;2023-02-23T17:04:55;42.00;;;19.20;;
50709;SDS011;37033;49.994;21.992;2023-02-23T17:07:45;39.00;;;19.90;;
50709;SDS011;37033;49.994;21.992;2023-02-23T17:10:35;42.20;;;21.50;;
50709;SDS011;37033;49.994;21.992;2023-02-23T17:13:27;37.20;;;20.10;;
50709;SDS011;37033;49.994;21.992;2023-02-23T17:16:19;42.70;;;20.30;;
50709;SDS011;37033;49.994;21.992;2023-02-23T17:19:08;40.70;;;20.70;;
50709;SDS011;37033;49.994;21.992;2023-02-23T17:22:01;41.40;;;20.40;;
50709;SDS011;37033;49.994;21.992;2023-02-23T17:24:50;38.00;;;18.60;;
50709;SDS011;37033;49.994;21.992;2023-02-23T17:27:40;37.80;;;17.60;;
50709;SDS011;37033;49.994;21.992;2023-02-23T17:30:30;34.80;;;17.60;;
50709;SDS011;37033;49.994;21.992;2023-02-23T17:33:20;42.80;;;19.20;;